sensor_id;sensor_type;location;lat;lon;timestamp;pressure;altitude;pressure_sealevel;temperature;humidity
6680;BME280;3376;42.664;23.346;2023-03-13T00:01:44;94767.91;;;3.37;72.04
6680;BME280;3376;42.664;23.346;2023-03-13T00:04:11;94770.69;;;3.34;71.96
6680;BME280;3376;42.664;23.346;2023-03-13T00:06:40;94770.78;;;3.23;72.12
6680;BME280;3376;42.664;23.346;2023-03-13T00:09:09;94776.91;;;3.11;72.06
6680;BME280;3376;42.664;23.346;2023-03-13T00:11:36;94774.94;;;3.04;72.07
6680;BME280;3376;42.664;23.346;2023-03-13T00:14:04;94776.03;;;3.01;71.48
6680;BME280;3376;42.664;23.346;2023-03-13T00:16:33;94779.38;;;3.02;71.34
6680;BME280;3376;42.664;23.346;2023-03-13T00:19:02;94776.25;;;2.98;72.23
6680;BME280;3376;42.664;23.346;2023-03-13T00:21:29;94786.47;;;2.98;72.27
6680;BME280;3376;42.664;23.346;2023-03-13T00:23:57;94761.13;;;2.75;71.82
6680;BME280;3376;42.664;23.346;2023-03-13T00:26:26;94757.28;;;2.80;72.75
6680;BME280;3376;42.664;23.346;2023-03-13T00:28:53;94788.50;;;2.95;72.62
6680;BME280;3376;42.664;23.346;2023-03-13T00:31:22;94789.53;;;2.92;72.30
6680;BME280;3376;42.664;23.346;2023-03-13T00:33:52;94788.03;;;2.90;73.00
6680;BME280;3376;42.664;23.346;2023-03-13T00:36:21;94793.50;;;2.96;73.76
6680;BME280;3376;42.664;23.346;2023-03-13T00:38:48;94782.13;;;2.89;72.61
6680;BME280;3376;42.664;23.346;2023-03-13T00:41:17;94774.94;;;2.83;75.35
6680;BME280;3376;42.664;23.346;2023-03-13T00:43:45;94801.84;;;2.98;75.45
6680;BME280;3376;42.664;23.346;2023-03-13T00:46:13;94795.09;;;2.97;73.65
6680;BME280;3376;42.664;23.346;2023-03-13T00:48:40;94787.13;;;2.91;73.20
6680;BME280;3376;42.664;23.346;2023-03-13T00:51:09;94785.03;;;2.85;74.85
6680;BME280;3376;42.664;23.346;2023-03-13T00:53:36;94781.06;;;2.92;72.80
6680;BME280;3376;42.664;23.346;2023-03-13T00:56:04;94782.81;;;2.91;74.25
6680;BME280;3376;42.664;23.346;2023-03-13T00:58:34;94785.81;;;2.96;76.49
6680;BME280;3376;42.664;23.346;2023-03-13T01:01:08;94780.00;;;2.94;74.22
6680;BME280;3376;42.664;23.346;2023-03-13T01:03:36;94781.88;;;2.92;75.33
6680;BME280;3376;42.664;23.346;2023-03-13T01:06:05;94780.25;;;2.91;73.65
6680;BME280;3376;42.664;23.346;2023-03-13T01:08:33;94780.28;;;2.80;73.06
6680;BME280;3376;42.664;23.346;2023-03-13T01:11:02;94781.81;;;2.83;73.08
6680;BME280;3376;42.664;23.346;2023-03-13T01:13:29;94790.59;;;2.90;73.46
6680;BME280;3376;42.664;23.346;2023-03-13T01:16:01;94784.72;;;2.78;71.94
6680;BME280;3376;42.664;23.346;2023-03-13T01:18:28;94783.41;;;2.84;71.99
6680;BME280;3376;42.664;23.346;2023-03-13T01:20:55;94770.66;;;2.73;71.97
6680;BME280;3376;42.664;23.346;2023-03-13T01:23:22;94786.13;;;2.71;72.18
6680;BME280;3376;42.664;23.346;2023-03-13T01:25:50;94783.81;;;2.68;72.49
6680;BME280;3376;42.664;23.346;2023-03-13T01:28:17;94785.94;;;2.63;72.57
6680;BME280;3376;42.664;23.346;2023-03-13T01:30:43;94563.41;;;1.29;73.12
6680;BME280;3376;42.664;23.346;2023-03-13T01:33:10;94703.28;;;2.10;72.38
6680;BME280;3376;42.664;23.346;2023-03-13T01:35:37;94782.13;;;2.58;73.56
6680;BME280;3376;42.664;23.346;2023-03-13T01:38:03;94792.41;;;2.47;74.04
6680;BME280;3376;42.664;23.346;2023-03-13T01:40:30;94794.66;;;2.61;73.85
6680;BME280;3376;42.664;23.346;2023-03-13T01:43:11;94804.09;;;2.49;74.58
6680;BME280;3376;42.664;23.346;2023-03-13T01:46:03;94801.56;;;2.49;74.08
6680;BME280;3376;42.664;23.346;2023-03-13T01:48:34;94807.13;;;2.54;74.01
6680;BME280;3376;42.664;23.346;2023-03-13T01:51:05;94803.91;;;2.41;74.48
6680;BME280;3376;42.664;23.346;2023-03-13T01:53:35;94809.72;;;2.43;74.25
6680;BME280;3376;42.664;23.346;2023-03-13T01:56:07;94806.34;;;2.42;73.58
6680;BME280;3376;42.664;23.346;2023-03-13T01:58:37;94757.50;;;2.03;74.21
6680;BME280;3376;42.664;23.346;2023-03-13T02:01:04;94790.56;;;2.26;74.20
6680;BME280;3376;42.664;23.346;2023-03-13T02:03:33;94799.03;;;2.27;74.56
6680;BME280;3376;42.664;23.346;2023-03-13T02:06:01;94778.63;;;2.16;74.49
6680;BME280;3376;42.664;23.346;2023-03-13T02:08:32;94798.00;;;2.29;74.65
6680;BME280;3376;42.664;23.346;2023-03-13T02:11:05;94794.88;;;2.26;74.79
6680;BME280;3376;42.664;23.346;2023-03-13T02:13:34;94745.94;;;1.88;74.58
6680;BME280;3376;42.664;23.346;2023-03-13T02:16:04;94803.59;;;2.23;75.00
6680;BME280;3376;42.664;23.346;2023-03-13T02:18:31;94812.06;;;2.24;75.93
6680;BME280;3376;42.664;23.346;2023-03-13T02:21:04;94793.47;;;2.11;76.39
6680;BME280;3376;42.664;23.346;2023-03-13T02:23:38;94818.81;;;2.14;77.17
6680;BME280;3376;42.664;23.346;2023-03-13T02:26:08;94812.78;;;2.04;77.34
6680;BME280;3376;42.664;23.346;2023-03-13T02:28:36;94788.06;;;1.82;77.27
6680;BME280;3376;42.664;23.346;2023-03-13T02:31:04;94821.25;;;2.04;78.43
6680;BME280;3376;42.664;23.346;2023-03-13T02:33:35;94826.25;;;2.06;79.01
6680;BME280;3376;42.664;23.346;2023-03-13T02:36:06;94835.28;;;1.99;79.28
6680;BME280;3376;42.664;23.346;2023-03-13T02:38:38;94844.97;;;1.95;78.96
6680;BME280;3376;42.664;23.346;2023-03-13T02:41:09;94823.47;;;1.76;78.66
6680;BME280;3376;42.664;23.346;2023-03-13T02:43:36;94855.63;;;1.89;79.29
6680;BME280;3376;42.664;23.346;2023-03-13T02:46:07;94856.09;;;1.83;79.39
6680;BME280;3376;42.664;23.346;2023-03-13T02:48:36;94849.56;;;1.68;79.74
6680;BME280;3376;42.664;23.346;2023-03-13T02:51:05;94853.06;;;1.67;79.50
6680;BME280;3376;42.664;23.346;2023-03-13T02:53:34;94865.34;;;1.73;80.81
6680;BME280;3376;42.664;23.346;2023-03-13T02:56:02;94706.09;;;0.75;80.71
6680;BME280;3376;42.664;23.346;2023-03-13T02:58:37;94838.53;;;1.57;81.04
6680;BME280;3376;42.664;23.346;2023-03-13T03:01:04;94860.13;;;1.64;81.67
6680;BME280;3376;42.664;23.346;2023-03-13T03:03:32;94809.25;;;1.28;82.18
6680;BME280;3376;42.664;23.346;2023-03-13T03:05:59;94852.22;;;1.56;82.11
6680;BME280;3376;42.664;23.346;2023-03-13T03:08:26;94841.53;;;1.40;82.69
6680;BME280;3376;42.664;23.346;2023-03-13T03:10:53;94857.22;;;1.57;83.65
6680;BME280;3376;42.664;23.346;2023-03-13T03:13:19;94846.97;;;1.46;83.51
6680;BME280;3376;42.664;23.346;2023-03-13T03:15:48;94862.88;;;1.50;84.40
6680;BME280;3376;42.664;23.346;2023-03-13T03:18:14;94869.16;;;1.57;84.17
6680;BME280;3376;42.664;23.346;2023-03-13T03:20:41;94873.13;;;1.72;83.83
6680;BME280;3376;42.664;23.346;2023-03-13T03:23:08;94834.34;;;1.34;84.05
6680;BME280;3376;42.664;23.346;2023-03-13T03:25:35;94892.84;;;1.59;84.20
6680;BME280;3376;42.664;23.346;2023-03-13T03:28:01;94893.75;;;1.47;85.49
6680;BME280;3376;42.664;23.346;2023-03-13T03:30:28;94901.16;;;1.39;85.97
6680;BME280;3376;42.664;23.346;2023-03-13T03:32:56;94905.78;;;1.34;86.72
6680;BME280;3376;42.664;23.346;2023-03-13T03:35:23;94908.34;;;1.34;85.88
6680;BME280;3376;42.664;23.346;2023-03-13T03:37:50;94907.13;;;1.27;86.51
6680;BME280;3376;42.664;23.346;2023-03-13T03:40:17;94916.75;;;1.23;87.13
6680;BME280;3376;42.664;23.346;2023-03-13T03:42:45;94910.41;;;1.29;87.79
6680;BME280;3376;42.664;23.346;2023-03-13T03:45:12;94919.44;;;1.33;87.83
6680;BME280;3376;42.664;23.346;2023-03-13T03:47:39;94925.00;;;1.27;89.00
6680;BME280;3376;42.664;23.346;2023-03-13T03:50:08;94910.09;;;1.09;88.63
6680;BME280;3376;42.664;23.346;2023-03-13T03:52:36;94941.38;;;1.11;89.37
6680;BME280;3376;42.664;23.346;2023-03-13T03:55:03;94940.81;;;1.08;89.48
6680;BME280;3376;42.664;23.346;2023-03-13T03:57:30;94931.84;;;1.02;89.71
6680;BME280;3376;42.664;23.346;2023-03-13T03:59:57;94930.09;;;1.03;90.20
6680;BME280;3376;42.664;23.346;2023-03-13T04:02:24;94940.47;;;1.12;89.90
6680;BME280;3376;42.664;23.346;2023-03-13T04:04:50;94946.78;;;1.19;90.30
6680;BME280;3376;42.664;23.346;2023-03-13T04:07:19;94941.78;;;1.18;90.28
6680;BME280;3376;42.664;23.346;2023-03-13T04:09:45;94934.66;;;1.10;89.51
6680;BME280;3376;42.664;23.346;2023-03-13T04:12:12;94942.66;;;1.06;90.03
6680;BME280;3376;42.664;23.346;2023-03-13T04:14:39;94955.28;;;1.07;90.24
6680;BME280;3376;42.664;23.346;2023-03-13T04:17:06;94965.28;;;1.10;90.22
6680;BME280;3376;42.664;23.346;2023-03-13T04:19:32;94966.22;;;1.09;90.35
6680;BME280;3376;42.664;23.346;2023-03-13T04:21:59;94951.28;;;0.92;89.88
6680;BME280;3376;42.664;23.346;2023-03-13T04:24:27;94974.16;;;1.05;90.74
6680;BME280;3376;42.664;23.346;2023-03-13T04:26:54;94976.59;;;1.06;90.41
6680;BME280;3376;42.664;23.346;2023-03-13T04:29:20;94970.88;;;1.15;90.15
6680;BME280;3376;42.664;23.346;2023-03-13T04:31:47;94978.63;;;1.14;89.97
6680;BME280;3376;42.664;23.346;2023-03-13T04:34:14;94982.19;;;1.11;89.76
6680;BME280;3376;42.664;23.346;2023-03-13T04:36:41;94986.50;;;1.11;90.46
6680;BME280;3376;42.664;23.346;2023-03-13T04:39:07;94986.81;;;1.06;90.44
6680;BME280;3376;42.664;23.346;2023-03-13T04:41:36;94736.06;;;-0.59;90.46
6680;BME280;3376;42.664;23.346;2023-03-13T04:44:02;95008.78;;;0.96;90.95
6680;BME280;3376;42.664;23.346;2023-03-13T04:46:29;94957.34;;;0.66;91.55
6680;BME280;3376;42.664;23.346;2023-03-13T04:48:56;95001.34;;;0.93;91.86
6680;BME280;3376;42.664;23.346;2023-03-13T04:51:23;95011.75;;;0.90;91.80
6680;BME280;3376;42.664;23.346;2023-03-13T04:53:49;95001.19;;;0.84;92.25
6680;BME280;3376;42.664;23.346;2023-03-13T04:56:21;95014.91;;;0.94;91.75
6680;BME280;3376;42.664;23.346;2023-03-13T04:58:49;94964.06;;;0.67;92.33
6680;BME280;3376;42.664;23.346;2023-03-13T05:01:16;95013.59;;;0.88;92.31
6680;BME280;3376;42.664;23.346;2023-03-13T05:03:43;95020.13;;;0.92;92.71
6680;BME280;3376;42.664;23.346;2023-03-13T05:06:10;95002.47;;;0.89;92.92
6680;BME280;3376;42.664;23.346;2023-03-13T05:08:37;95016.72;;;1.04;92.12
6680;BME280;3376;42.664;23.346;2023-03-13T05:11:04;95002.53;;;1.13;99.34
6680;BME280;3376;42.664;23.346;2023-03-13T05:13:31;95014.84;;;1.43;96.14
6680;BME280;3376;42.664;23.346;2023-03-13T05:15:59;95018.16;;;1.56;92.41
6680;BME280;3376;42.664;23.346;2023-03-13T05:18:26;95025.09;;;1.77;100.00
6680;BME280;3376;42.664;23.346;2023-03-13T05:20:53;95028.97;;;1.94;100.00
6680;BME280;3376;42.664;23.346;2023-03-13T05:23:20;95027.28;;;2.16;95.99
6680;BME280;3376;42.664;23.346;2023-03-13T05:25:47;95031.63;;;2.27;93.98
6680;BME280;3376;42.664;23.346;2023-03-13T05:28:13;95045.69;;;2.43;91.10
6680;BME280;3376;42.664;23.346;2023-03-13T05:30:40;95037.81;;;2.58;91.22
6680;BME280;3376;42.664;23.346;2023-03-13T05:33:08;94985.97;;;2.45;87.62
6680;BME280;3376;42.664;23.346;2023-03-13T05:35:35;95045.59;;;3.00;95.98
6680;BME280;3376;42.664;23.346;2023-03-13T05:38:02;95033.88;;;2.87;87.06
6680;BME280;3376;42.664;23.346;2023-03-13T05:40:29;95045.41;;;3.03;87.34
6680;BME280;3376;42.664;23.346;2023-03-13T05:42:55;95059.78;;;3.26;85.80
6680;BME280;3376;42.664;23.346;2023-03-13T05:45:22;95059.75;;;3.48;84.20
6680;BME280;3376;42.664;23.346;2023-03-13T05:47:50;95057.81;;;3.73;83.68
6680;BME280;3376;42.664;23.346;2023-03-13T05:50:18;95053.47;;;3.84;80.73
6680;BME280;3376;42.664;23.346;2023-03-13T05:52:45;95057.03;;;3.93;79.03
6680;BME280;3376;42.664;23.346;2023-03-13T05:55:12;95052.91;;;4.01;81.56
6680;BME280;3376;42.664;23.346;2023-03-13T05:57:38;95069.72;;;4.26;79.02
6680;BME280;3376;42.664;23.346;2023-03-13T06:00:06;95081.94;;;4.54;76.85
6680;BME280;3376;42.664;23.346;2023-03-13T06:02:33;95076.22;;;4.71;75.02
6680;BME280;3376;42.664;23.346;2023-03-13T06:05:00;95080.38;;;4.93;75.54
6680;BME280;3376;42.664;23.346;2023-03-13T06:07:28;95085.75;;;5.10;74.61
6680;BME280;3376;42.664;23.346;2023-03-13T06:09:54;95080.50;;;5.21;72.26
6680;BME280;3376;42.664;23.346;2023-03-13T06:12:21;95083.53;;;5.36;73.28
6680;BME280;3376;42.664;23.346;2023-03-13T06:14:48;95077.63;;;5.45;71.67
6680;BME280;3376;42.664;23.346;2023-03-13T06:17:15;95082.81;;;5.73;68.90
6680;BME280;3376;42.664;23.346;2023-03-13T06:19:41;95044.38;;;5.62;68.29
6680;BME280;3376;42.664;23.346;2023-03-13T06:22:08;95061.22;;;5.95;65.80
6680;BME280;3376;42.664;23.346;2023-03-13T06:24:36;95082.22;;;6.29;65.17
6680;BME280;3376;42.664;23.346;2023-03-13T06:27:03;95103.22;;;6.53;63.25
6680;BME280;3376;42.664;23.346;2023-03-13T06:29:30;95085.19;;;6.72;62.64
6680;BME280;3376;42.664;23.346;2023-03-13T06:31:56;95095.81;;;6.96;61.09
6680;BME280;3376;42.664;23.346;2023-03-13T06:34:23;95093.84;;;7.17;62.67
6680;BME280;3376;42.664;23.346;2023-03-13T06:36:50;95076.88;;;7.24;60.81
6680;BME280;3376;42.664;23.346;2023-03-13T06:39:16;95075.28;;;6.77;59.05
6680;BME280;3376;42.664;23.346;2023-03-13T06:41:45;95068.00;;;6.34;61.32
6680;BME280;3376;42.664;23.346;2023-03-13T06:44:11;95057.44;;;6.37;61.14
6680;BME280;3376;42.664;23.346;2023-03-13T06:46:38;95066.13;;;6.27;59.60
6680;BME280;3376;42.664;23.346;2023-03-13T06:49:05;95018.47;;;5.84;61.15
6680;BME280;3376;42.664;23.346;2023-03-13T06:51:32;95060.84;;;6.19;66.25
6680;BME280;3376;42.664;23.346;2023-03-13T06:54:00;95072.88;;;6.37;64.14
6680;BME280;3376;42.664;23.346;2023-03-13T06:56:27;95075.53;;;6.74;63.16
6680;BME280;3376;42.664;23.346;2023-03-13T06:58:55;95069.41;;;6.94;61.39
6680;BME280;3376;42.664;23.346;2023-03-13T07:01:22;95074.69;;;7.29;59.37
6680;BME280;3376;42.664;23.346;2023-03-13T07:03:49;95068.16;;;7.62;59.12
6680;BME280;3376;42.664;23.346;2023-03-13T07:06:16;95067.75;;;7.84;56.78
6680;BME280;3376;42.664;23.346;2023-03-13T07:08:43;95069.84;;;7.98;55.42
6680;BME280;3376;42.664;23.346;2023-03-13T07:11:12;95064.88;;;8.04;55.62
6680;BME280;3376;42.664;23.346;2023-03-13T07:13:39;95073.47;;;8.40;52.63
6680;BME280;3376;42.664;23.346;2023-03-13T07:16:09;94711.78;;;6.46;52.41
6680;BME280;3376;42.664;23.346;2023-03-13T07:18:36;95073.13;;;9.04;51.79
6680;BME280;3376;42.664;23.346;2023-03-13T07:21:04;95053.84;;;9.24;51.88
6680;BME280;3376;42.664;23.346;2023-03-13T07:23:32;95053.94;;;9.48;52.43
6680;BME280;3376;42.664;23.346;2023-03-13T07:26:00;95048.22;;;9.70;50.33
6680;BME280;3376;42.664;23.346;2023-03-13T07:28:28;95060.34;;;10.19;49.94
6680;BME280;3376;42.664;23.346;2023-03-13T07:31:02;95042.06;;;10.69;47.98
6680;BME280;3376;42.664;23.346;2023-03-13T07:33:31;95046.34;;;11.17;46.41
6680;BME280;3376;42.664;23.346;2023-03-13T07:35:58;95034.50;;;11.22;44.93
6680;BME280;3376;42.664;23.346;2023-03-13T07:38:25;95020.50;;;10.85;45.27
6680;BME280;3376;42.664;23.346;2023-03-13T07:40:53;95035.19;;;11.08;45.13
6680;BME280;3376;42.664;23.346;2023-03-13T07:43:20;95045.88;;;11.13;45.69
6680;BME280;3376;42.664;23.346;2023-03-13T07:45:52;95053.78;;;11.20;43.98
6680;BME280;3376;42.664;23.346;2023-03-13T07:48:20;95050.78;;;11.47;44.47
6680;BME280;3376;42.664;23.346;2023-03-13T07:50:48;95047.88;;;11.50;44.10
6680;BME280;3376;42.664;23.346;2023-03-13T07:53:15;94985.34;;;11.37;43.39
6680;BME280;3376;42.664;23.346;2023-03-13T07:55:51;95057.94;;;11.92;43.02
6680;BME280;3376;42.664;23.346;2023-03-13T07:58:19;95039.59;;;11.54;42.91
6680;BME280;3376;42.664;23.346;2023-03-13T08:00:45;95038.97;;;11.91;42.06
6680;BME280;3376;42.664;23.346;2023-03-13T08:03:12;95040.19;;;12.26;41.00
6680;BME280;3376;42.664;23.346;2023-03-13T08:05:39;95037.97;;;12.60;40.34
6680;BME280;3376;42.664;23.346;2023-03-13T08:08:07;95031.19;;;12.36;40.51
6680;BME280;3376;42.664;23.346;2023-03-13T08:10:34;95034.94;;;12.93;39.56
6680;BME280;3376;42.664;23.346;2023-03-13T08:13:01;95036.44;;;13.11;39.07
6680;BME280;3376;42.664;23.346;2023-03-13T08:15:28;95035.44;;;12.52;39.44
6680;BME280;3376;42.664;23.346;2023-03-13T08:17:55;95034.09;;;12.78;39.14
6680;BME280;3376;42.664;23.346;2023-03-13T08:20:22;95015.63;;;13.11;38.18
6680;BME280;3376;42.664;23.346;2023-03-13T08:22:49;95028.44;;;13.41;38.27
6680;BME280;3376;42.664;23.346;2023-03-13T08:25:17;94580.78;;;10.40;38.58
6680;BME280;3376;42.664;23.346;2023-03-13T08:27:44;95023.41;;;13.11;38.59
6680;BME280;3376;42.664;23.346;2023-03-13T08:30:11;95024.47;;;13.74;37.16
6680;BME280;3376;42.664;23.346;2023-03-13T08:32:38;95037.81;;;13.86;36.43
6680;BME280;3376;42.664;23.346;2023-03-13T08:35:06;95037.38;;;13.82;36.10
6680;BME280;3376;42.664;23.346;2023-03-13T08:37:33;95038.97;;;13.98;36.15
6680;BME280;3376;42.664;23.346;2023-03-13T08:40:00;95045.31;;;14.10;36.26
6680;BME280;3376;42.664;23.346;2023-03-13T08:42:29;95047.09;;;14.09;37.17
6680;BME280;3376;42.664;23.346;2023-03-13T08:44:55;95036.31;;;14.27;35.68
6680;BME280;3376;42.664;23.346;2023-03-13T08:47:22;95038.66;;;14.07;35.80
6680;BME280;3376;42.664;23.346;2023-03-13T08:49:49;95037.44;;;14.39;34.96
6680;BME280;3376;42.664;23.346;2023-03-13T08:52:15;95032.75;;;14.77;34.00
6680;BME280;3376;42.664;23.346;2023-03-13T08:54:42;95027.94;;;14.74;33.38
6680;BME280;3376;42.664;23.346;2023-03-13T08:57:09;95022.47;;;14.96;33.33
6680;BME280;3376;42.664;23.346;2023-03-13T08:59:37;95020.38;;;15.41;32.51
6680;BME280;3376;42.664;23.346;2023-03-13T09:02:04;95031.47;;;15.21;34.12
6680;BME280;3376;42.664;23.346;2023-03-13T09:04:31;95028.22;;;15.13;34.58
6680;BME280;3376;42.664;23.346;2023-03-13T09:06:58;95026.78;;;15.10;33.73
6680;BME280;3376;42.664;23.346;2023-03-13T09:09:24;95023.22;;;14.90;35.01
6680;BME280;3376;42.664;23.346;2023-03-13T09:11:51;95024.25;;;14.68;35.66
6680;BME280;3376;42.664;23.346;2023-03-13T09:14:18;95013.41;;;14.65;34.64
6680;BME280;3376;42.664;23.346;2023-03-13T09:16:46;95024.66;;;14.65;34.46
6680;BME280;3376;42.664;23.346;2023-03-13T09:19:14;95017.38;;;14.61;35.21
6680;BME280;3376;42.664;23.346;2023-03-13T09:21:40;94994.38;;;14.98;34.00
6680;BME280;3376;42.664;23.346;2023-03-13T09:24:07;95006.78;;;15.52;33.20
6680;BME280;3376;42.664;23.346;2023-03-13T09:26:34;95009.31;;;15.79;33.13
6680;BME280;3376;42.664;23.346;2023-03-13T09:29:01;95005.78;;;16.00;33.02
6680;BME280;3376;42.664;23.346;2023-03-13T09:31:29;94983.13;;;15.60;33.44
6680;BME280;3376;42.664;23.346;2023-03-13T09:33:58;95017.00;;;15.19;34.06
6680;BME280;3376;42.664;23.346;2023-03-13T09:36:26;95021.16;;;15.13;33.60
6680;BME280;3376;42.664;23.346;2023-03-13T09:38:54;95020.84;;;15.23;32.72
6680;BME280;3376;42.664;23.346;2023-03-13T09:41:25;95002.91;;;15.13;33.37
6680;BME280;3376;42.664;23.346;2023-03-13T09:43:56;95019.56;;;14.36;34.54
6680;BME280;3376;42.664;23.346;2023-03-13T09:46:29;95008.13;;;14.58;34.80
6680;BME280;3376;42.664;23.346;2023-03-13T09:49:01;95006.81;;;14.27;35.55
6680;BME280;3376;42.664;23.346;2023-03-13T09:51:30;94982.38;;;14.28;35.07
6680;BME280;3376;42.664;23.346;2023-03-13T09:54:05;95003.50;;;14.33;35.76
6680;BME280;3376;42.664;23.346;2023-03-13T09:56:38;95007.19;;;14.66;34.33
6680;BME280;3376;42.664;23.346;2023-03-13T09:59:15;94984.44;;;14.81;33.29
6680;BME280;3376;42.664;23.346;2023-03-13T10:01:46;94998.31;;;15.50;32.05
6680;BME280;3376;42.664;23.346;2023-03-13T10:04:27;94993.78;;;15.65;31.59
6680;BME280;3376;42.664;23.346;2023-03-13T10:06:55;95005.56;;;15.48;32.57
6680;BME280;3376;42.664;23.346;2023-03-13T10:09:27;95005.06;;;15.03;34.43
6680;BME280;3376;42.664;23.346;2023-03-13T10:11:59;94978.59;;;15.06;33.45
6680;BME280;3376;42.664;23.346;2023-03-13T10:14:35;94987.44;;;15.12;33.09
6680;BME280;3376;42.664;23.346;2023-03-13T10:17:06;94985.13;;;15.58;32.85
6680;BME280;3376;42.664;23.346;2023-03-13T10:19:40;94969.31;;;15.79;32.83
6680;BME280;3376;42.664;23.346;2023-03-13T10:22:12;94969.72;;;15.82;32.22
6680;BME280;3376;42.664;23.346;2023-03-13T10:24:45;94948.06;;;15.88;32.44
6680;BME280;3376;42.664;23.346;2023-03-13T10:27:15;94966.69;;;15.79;32.42
6680;BME280;3376;42.664;23.346;2023-03-13T10:29:41;94961.75;;;15.97;32.92
6680;BME280;3376;42.664;23.346;2023-03-13T10:32:12;94951.06;;;15.92;31.65
6680;BME280;3376;42.664;23.346;2023-03-13T10:34:55;94957.53;;;16.02;31.20
6680;BME280;3376;42.664;23.346;2023-03-13T10:37:24;94943.94;;;16.46;30.40
6680;BME280;3376;42.664;23.346;2023-03-13T10:39:51;94950.59;;;16.81;29.55
6680;BME280;3376;42.664;23.346;2023-03-13T10:42:22;94942.81;;;17.32;29.19
6680;BME280;3376;42.664;23.346;2023-03-13T10:44:55;94927.72;;;17.34;28.53
6680;BME280;3376;42.664;23.346;2023-03-13T10:47:23;94945.66;;;17.30;29.05
6680;BME280;3376;42.664;23.346;2023-03-13T10:49:54;94904.06;;;16.83;28.67
6680;BME280;3376;42.664;23.346;2023-03-13T10:52:30;94931.47;;;16.48;29.52
6680;BME280;3376;42.664;23.346;2023-03-13T10:54:59;94919.59;;;16.59;30.13
6680;BME280;3376;42.664;23.346;2023-03-13T10:57:28;94884.56;;;16.27;29.49
6680;BME280;3376;42.664;23.346;2023-03-13T10:59:56;94877.13;;;16.11;29.71
6680;BME280;3376;42.664;23.346;2023-03-13T11:02:26;94926.00;;;16.43;30.11
6680;BME280;3376;42.664;23.346;2023-03-13T11:04:55;94923.00;;;16.26;29.97
6680;BME280;3376;42.664;23.346;2023-03-13T11:07:29;94916.13;;;16.06;30.91
6680;BME280;3376;42.664;23.346;2023-03-13T11:09:59;94910.28;;;16.10;30.77
6680;BME280;3376;42.664;23.346;2023-03-13T11:12:26;94698.00;;;15.37;30.57
6680;BME280;3376;42.664;23.346;2023-03-13T11:14:57;94895.19;;;16.91;30.88
6680;BME280;3376;42.664;23.346;2023-03-13T11:17:31;94900.59;;;17.09;32.21
6680;BME280;3376;42.664;23.346;2023-03-13T11:20:11;94879.44;;;17.10;30.69
6680;BME280;3376;42.664;23.346;2023-03-13T11:22:48;94889.50;;;17.64;28.52
6680;BME280;3376;42.664;23.346;2023-03-13T11:25:22;94891.34;;;17.64;28.71
6680;BME280;3376;42.664;23.346;2023-03-13T11:28:04;94886.03;;;17.77;29.94
6680;BME280;3376;42.664;23.346;2023-03-13T11:30:52;94878.25;;;17.64;29.35
6680;BME280;3376;42.664;23.346;2023-03-13T11:33:28;94874.09;;;17.49;28.95
6680;BME280;3376;42.664;23.346;2023-03-13T11:36:07;94873.69;;;17.46;28.46
6680;BME280;3376;42.664;23.346;2023-03-13T11:38:41;94875.25;;;17.53;28.92
6680;BME280;3376;42.664;23.346;2023-03-13T11:41:18;94865.66;;;17.34;30.09
6680;BME280;3376;42.664;23.346;2023-03-13T11:43:59;94846.38;;;17.16;30.75
6680;BME280;3376;42.664;23.346;2023-03-13T11:46:39;94842.41;;;17.07;30.03
6680;BME280;3376;42.664;23.346;2023-03-13T11:49:21;94841.56;;;17.13;32.07
6680;BME280;3376;42.664;23.346;2023-03-13T11:52:03;94844.41;;;17.11;31.26
6680;BME280;3376;42.664;23.346;2023-03-13T11:54:46;94839.94;;;17.18;30.36
6680;BME280;3376;42.664;23.346;2023-03-13T11:57:20;94832.78;;;17.38;30.30
6680;BME280;3376;42.664;23.346;2023-03-13T12:00:06;94845.16;;;17.18;30.82
6680;BME280;3376;42.664;23.346;2023-03-13T12:02:44;94835.41;;;17.38;31.08
6680;BME280;3376;42.664;23.346;2023-03-13T12:05:16;94823.94;;;17.39;30.30
6680;BME280;3376;42.664;23.346;2023-03-13T12:07:49;94817.66;;;17.03;30.39
6680;BME280;3376;42.664;23.346;2023-03-13T12:10:19;94820.50;;;16.95;30.06
6680;BME280;3376;42.664;23.346;2023-03-13T12:12:50;94811.31;;;17.23;29.30
6680;BME280;3376;42.664;23.346;2023-03-13T12:15:23;94807.94;;;17.10;29.55
6680;BME280;3376;42.664;23.346;2023-03-13T12:17:57;94802.38;;;17.37;29.12
6680;BME280;3376;42.664;23.346;2023-03-13T12:20:28;94804.50;;;17.16;29.95
6680;BME280;3376;42.664;23.346;2023-03-13T12:23:13;94799.13;;;17.42;29.66
6680;BME280;3376;42.664;23.346;2023-03-13T12:25:45;94798.31;;;17.48;29.63
6680;BME280;3376;42.664;23.346;2023-03-13T12:28:20;94803.91;;;17.58;30.35
6680;BME280;3376;42.664;23.346;2023-03-13T12:30:52;94759.28;;;17.33;29.46
6680;BME280;3376;42.664;23.346;2023-03-13T12:33:24;94790.25;;;17.49;29.59
6680;BME280;3376;42.664;23.346;2023-03-13T12:36:01;94793.88;;;17.48;30.99
6680;BME280;3376;42.664;23.346;2023-03-13T12:38:35;94796.66;;;17.53;29.35
6680;BME280;3376;42.664;23.346;2023-03-13T12:41:16;94789.94;;;17.64;29.26
6680;BME280;3376;42.664;23.346;2023-03-13T12:43:46;94786.81;;;17.80;29.55
6680;BME280;3376;42.664;23.346;2023-03-13T12:46:36;94784.19;;;17.49;29.40
6680;BME280;3376;42.664;23.346;2023-03-13T12:55:54;94785.03;;;17.43;30.39
6680;BME280;3376;42.664;23.346;2023-03-13T12:58:51;94794.19;;;17.27;31.57
6680;BME280;3376;42.664;23.346;2023-03-13T13:01:28;94782.38;;;17.12;30.71
6680;BME280;3376;42.664;23.346;2023-03-13T13:03:58;94792.22;;;17.16;30.38
6680;BME280;3376;42.664;23.346;2023-03-13T13:06:27;94790.09;;;17.00;31.96
6680;BME280;3376;42.664;23.346;2023-03-13T13:09:17;94773.72;;;17.11;31.01
6680;BME280;3376;42.664;23.346;2023-03-13T13:11:48;94794.47;;;17.44;30.52
6680;BME280;3376;42.664;23.346;2023-03-13T13:17:22;94764.34;;;17.28;29.39
6680;BME280;3376;42.664;23.346;2023-03-13T13:19:51;94793.41;;;17.20;29.60
6680;BME280;3376;42.664;23.346;2023-03-13T13:22:47;94792.41;;;17.15;31.24
6680;BME280;3376;42.664;23.346;2023-03-13T13:25:30;94781.06;;;16.90;32.04
6680;BME280;3376;42.664;23.346;2023-03-13T13:28:25;94783.47;;;16.91;31.72
6680;BME280;3376;42.664;23.346;2023-03-13T13:30:55;94777.75;;;16.57;30.56
6680;BME280;3376;42.664;23.346;2023-03-13T13:33:36;94780.97;;;16.39;32.00
6680;BME280;3376;42.664;23.346;2023-03-13T13:36:29;94765.28;;;16.39;31.05
6680;BME280;3376;42.664;23.346;2023-03-13T13:38:57;94774.50;;;16.61;30.97
6680;BME280;3376;42.664;23.346;2023-03-13T13:41:32;94775.25;;;16.75;30.67